Time;durP1;ratioP1;P1;durP2;ratioP2;P2;SDS_P1;SDS_P2;PMS_P1;PMS_P2;Temp;Humidity;BMP_temperature;BMP_pressure;BME280_temperature;BME280_humidity;BME280_pressure;Samples;Min_cycle;Max_cycle;Signal;HPM_P1;HPM_P2
2023/03/16 00:00:36;;;;;;;2.42;2.22;;;;;;;;;;5034383;28;20284;-83
2023/03/16 00:03:05;;;;;;;2.65;2.38;;;;;;;;;;5034087;28;20915;-82
2023/03/16 00:05:32;;;;;;;4.30;3.10;;;;;;;;;;5035408;28;20333;-82
2023/03/16 00:08:00;;;;;;;2.58;2.33;;;;;;;;;;5035132;28;20698;-82
2023/03/16 00:10:28;;;;;;;3.88;3.03;;;;;;;;;;5034884;28;20201;-83
2023/03/16 00:12:55;;;;;;;3.72;3.22;;;;;;;;;;5035786;28;20285;-82
2023/03/16 00:15:24;;;;;;;3.38;2.97;;;;;;;;;;5034219;28;20233;-83
2023/03/16 00:17:53;;;;;;;3.67;3.38;;;;;;;;;;5035477;28;20209;-82
2023/03/16 00:20:24;;;;;;;2.50;2.30;;;;;;;;;;5034686;28;20222;-82
2023/03/16 00:22:53;;;;;;;3.08;2.88;;;;;;;;;;5035073;28;20647;-82
2023/03/16 00:25:23;;;;;;;5.32;3.63;;;;;;;;;;5032592;28;20345;-84
2023/03/16 00:27:50;;;;;;;4.38;2.50;;;;;;;;;;5035057;28;20268;-84
2023/03/16 00:30:19;;;;;;;2.90;2.70;;;;;;;;;;5034186;28;20552;-83
2023/03/16 00:32:46;;;;;;;2.92;2.70;;;;;;;;;;5034755;28;20289;-84
2023/03/16 00:35:14;;;;;;;3.63;3.00;;;;;;;;;;5034721;28;20305;-83
2023/03/16 00:37:43;;;;;;;2.85;2.47;;;;;;;;;;5034433;28;20198;-83
2023/03/16 00:40:13;;;;;;;2.67;2.40;;;;;;;;;;5034250;28;20309;-82
2023/03/16 00:42:42;;;;;;;2.10;1.90;;;;;;;;;;5034854;28;20554;-83
2023/03/16 00:45:12;;;;;;;2.30;2.10;;;;;;;;;;5033491;28;20298;-82
2023/03/16 00:47:41;;;;;;;2.42;2.25;;;;;;;;;;5034812;28;20206;-83
2023/03/16 00:50:09;;;;;;;2.92;1.95;;;;;;;;;;5034143;28;20199;-82
2023/03/16 00:52:37;;;;;;;1.83;1.73;;;;;;;;;;5035236;28;20206;-84
2023/03/16 00:55:09;;;;;;;3.40;2.45;;;;;;;;;;5000488;28;20206;-82
2023/03/16 00:57:37;;;;;;;2.10;1.90;;;;;;;;;;5034536;28;20187;-82
2023/03/16 01:00:11;;;;;;;2.45;1.95;;;;;;;;;;5031246;28;20256;-84
2023/03/16 01:02:39;;;;;;;2.17;1.98;;;;;;;;;;5033779;28;20198;-82
2023/03/16 01:05:11;;;;;;;2.45;1.67;;;;;;;;;;5033699;28;20673;-82
2023/03/16 01:07:40;;;;;;;4.18;2.15;;;;;;;;;;5033804;28;20592;-82
2023/03/16 01:10:11;;;;;;;1.50;1.25;;;;;;;;;;5031635;28;20210;-82
2023/03/16 01:12:40;;;;;;;1.80;1.60;;;;;;;;;;5032990;28;20309;-82
2023/03/16 01:15:12;;;;;;;1.58;1.27;;;;;;;;;;5034176;28;20714;-83
2023/03/16 01:17:40;;;;;;;1.77;1.63;;;;;;;;;;5034113;28;20226;-82
2023/03/16 01:20:12;;;;;;;1.48;1.38;;;;;;;;;;5033486;28;20244;-82
2023/03/16 01:22:42;;;;;;;2.15;1.65;;;;;;;;;;5034300;28;20193;-82
2023/03/16 01:25:13;;;;;;;1.77;1.65;;;;;;;;;;5033016;28;20230;-82
2023/03/16 01:27:41;;;;;;;2.00;1.77;;;;;;;;;;5032894;28;20301;-82
2023/03/16 01:30:12;;;;;;;1.67;1.55;;;;;;;;;;5033370;28;20237;-82
2023/03/16 01:32:40;;;;;;;2.00;1.60;;;;;;;;;;5033466;28;20206;-82
2023/03/16 01:35:09;;;;;;;1.73;1.63;;;;;;;;;;5033462;28;20230;-82
2023/03/16 01:37:37;;;;;;;1.50;1.40;;;;;;;;;;5033457;28;20202;-82
2023/03/16 01:40:09;;;;;;;2.08;1.88;;;;;;;;;;5032525;28;20202;-84
2023/03/16 01:42:48;;;;;;;1.90;1.80;;;;;;;;;;5033668;28;20222;-84
2023/03/16 01:46:13;;;;;;;1.92;1.83;;;;;;;;;;5032952;28;20225;-84
2023/03/16 01:48:47;;;;;;;1.65;1.55;;;;;;;;;;5023229;28;20562;-82
2023/03/16 01:51:20;;;;;;;1.83;1.67;;;;;;;;;;5033567;28;20197;-83
2023/03/16 01:53:51;;;;;;;2.53;2.33;;;;;;;;;;5034061;28;20662;-84
2023/03/16 01:56:25;;;;;;;3.90;2.53;;;;;;;;;;5033488;28;20226;-82
2023/03/16 01:59:01;;;;;;;1.98;1.88;;;;;;;;;;5031286;28;20191;-84
2023/03/16 02:01:30;;;;;;;5.40;2.95;;;;;;;;;;5032206;28;20686;-83
2023/03/16 02:04:08;;;;;;;1.92;1.83;;;;;;;;;;5033867;28;20213;-82
2023/03/16 02:06:37;;;;;;;2.45;2.25;;;;;;;;;;5032220;28;20222;-83
2023/03/16 02:09:06;;;;;;;2.65;2.08;;;;;;;;;;5031966;28;20202;-82
2023/03/16 02:11:35;;;;;;;2.13;1.92;;;;;;;;;;5033411;28;20198;-82
2023/03/16 02:14:10;;;;;;;3.95;1.88;;;;;;;;;;5033871;28;20650;-83
2023/03/16 02:16:41;;;;;;;2.50;2.10;;;;;;;;;;5033765;28;20232;-82
2023/03/16 02:19:14;;;;;;;2.30;1.95;;;;;;;;;;5033519;28;20257;-82
2023/03/16 02:21:53;;;;;;;1.90;1.80;;;;;;;;;;5033210;28;20214;-82
2023/03/16 02:24:21;;;;;;;2.17;1.98;;;;;;;;;;5033683;28;20210;-82
2023/03/16 02:26:52;;;;;;;2.53;2.17;;;;;;;;;;5035763;28;20583;-83
2023/03/16 02:29:51;;;;;;;3.28;1.90;;;;;;;;;;5036508;28;20695;-82
2023/03/16 02:32:20;;;;;;;2.17;2.00;;;;;;;;;;5037284;28;20203;-82
2023/03/16 02:34:48;;;;;;;2.15;1.95;;;;;;;;;;5036818;28;20241;-82
2023/03/16 02:37:15;;;;;;;2.47;1.80;;;;;;;;;;5036787;28;20628;-82
2023/03/16 02:39:43;;;;;;;2.40;2.10;;;;;;;;;;5036000;28;20727;-82
2023/03/16 02:42:15;;;;;;;2.00;1.80;;;;;;;;;;5037157;28;20364;-83
2023/03/16 02:44:44;;;;;;;2.38;2.17;;;;;;;;;;5037337;28;20297;-82
2023/03/16 02:47:22;;;;;;;1.67;1.58;;;;;;;;;;5036977;28;20389;-82
2023/03/16 02:49:49;;;;;;;2.95;2.28;;;;;;;;;;5036226;28;20190;-83
2023/03/16 02:52:18;;;;;;;2.33;2.13;;;;;;;;;;5036684;28;20293;-82
2023/03/16 02:54:50;;;;;;;3.35;2.03;;;;;;;;;;5036659;28;20198;-84
2023/03/16 02:57:18;;;;;;;1.90;1.80;;;;;;;;;;5035412;28;20285;-84
2023/03/16 02:59:46;;;;;;;5.45;2.53;;;;;;;;;;5036531;28;20202;-83
2023/03/16 03:02:16;;;;;;;3.35;2.10;;;;;;;;;;5036479;28;20317;-83
2023/03/16 03:04:45;;;;;;;3.17;1.77;;;;;;;;;;5036004;28;20617;-84
2023/03/16 03:07:13;;;;;;;2.97;2.10;;;;;;;;;;5036941;28;20281;-83
2023/03/16 03:09:42;;;;;;;1.90;1.80;;;;;;;;;;5035340;28;20266;-83
2023/03/16 03:12:10;;;;;;;3.33;2.00;;;;;;;;;;5036071;28;20659;-83
2023/03/16 03:14:38;;;;;;;2.15;2.03;;;;;;;;;;5034814;28;20653;-83
2023/03/16 03:17:06;;;;;;;1.73;1.63;;;;;;;;;;5034897;28;20257;-83
2023/03/16 03:19:36;;;;;;;2.40;1.90;;;;;;;;;;5035784;28;20217;-84
2023/03/16 03:22:05;;;;;;;5.32;2.75;;;;;;;;;;5035120;28;20313;-83
2023/03/16 03:24:36;;;;;;;2.88;2.35;;;;;;;;;;5036044;28;20210;-83
2023/03/16 03:27:07;;;;;;;2.60;2.40;;;;;;;;;;5036527;28;20609;-83
2023/03/16 03:29:35;;;;;;;1.70;1.60;;;;;;;;;;5035472;28;20207;-82
2023/03/16 03:32:03;;;;;;;2.35;2.13;;;;;;;;;;5035499;28;20240;-82
2023/03/16 03:34:31;;;;;;;3.25;2.95;;;;;;;;;;5035001;28;20204;-82
2023/03/16 03:37:01;;;;;;;2.25;2.05;;;;;;;;;;5033427;28;20225;-81
2023/03/16 03:39:28;;;;;;;2.03;1.92;;;;;;;;;;5034788;28;20207;-84
2023/03/16 03:41:56;;;;;;;2.17;1.98;;;;;;;;;;5036012;28;20222;-84
2023/03/16 03:44:25;;;;;;;3.47;2.08;;;;;;;;;;5035598;28;20633;-82
2023/03/16 03:46:53;;;;;;;3.08;2.10;;;;;;;;;;5035818;28;20222;-82
2023/03/16 03:49:21;;;;;;;1.95;1.70;;;;;;;;;;5035593;28;20294;-82
2023/03/16 03:51:48;;;;;;;3.38;2.67;;;;;;;;;;5034465;28;20194;-82
2023/03/16 03:54:17;;;;;;;5.15;2.17;;;;;;;;;;5035554;28;20285;-83
2023/03/16 03:56:45;;;;;;;3.30;2.22;;;;;;;;;;5033974;28;20218;-82
2023/03/16 03:59:13;;;;;;;2.67;1.95;;;;;;;;;;5033732;28;20300;-84
2023/03/16 04:01:40;;;;;;;2.83;2.22;;;;;;;;;;5033928;28;20298;-83
2023/03/16 04:04:08;;;;;;;3.50;2.53;;;;;;;;;;5035072;28;20198;-83
2023/03/16 04:06:36;;;;;;;2.53;2.13;;;;;;;;;;5034690;28;20698;-83
2023/03/16 04:09:07;;;;;;;2.60;2.40;;;;;;;;;;5033693;28;20216;-84
2023/03/16 04:11:36;;;;;;;1.85;1.75;;;;;;;;;;5031579;28;20202;-82
2023/03/16 04:14:04;;;;;;;2.47;2.05;;;;;;;;;;5017769;28;20220;-82
2023/03/16 04:16:34;;;;;;;2.78;2.15;;;;;;;;;;5035623;28;20222;-83
2023/03/16 04:19:04;;;;;;;2.30;2.05;;;;;;;;;;5034740;28;20217;-83
2023/03/16 04:21:32;;;;;;;2.15;1.88;;;;;;;;;;5035178;28;20202;-82
2023/03/16 04:24:03;;;;;;;1.45;1.35;;;;;;;;;;5034622;28;20573;-82
2023/03/16 04:26:31;;;;;;;3.60;2.00;;;;;;;;;;5033851;28;20261;-83
2023/03/16 04:29:03;;;;;;;1.65;1.55;;;;;;;;;;5033042;28;20282;-83
2023/03/16 04:31:31;;;;;;;2.00;1.90;;;;;;;;;;5034927;28;20194;-82
2023/03/16 04:33:58;;;;;;;2.35;2.15;;;;;;;;;;5034866;28;20204;-82
2023/03/16 04:36:26;;;;;;;2.63;2.22;;;;;;;;;;5035085;28;20264;-82
2023/03/16 04:38:54;;;;;;;2.63;2.42;;;;;;;;;;5033795;28;20670;-82
2023/03/16 04:41:21;;;;;;;2.83;2.50;;;;;;;;;;5034963;28;20298;-83
2023/03/16 04:43:50;;;;;;;3.40;2.67;;;;;;;;;;5035143;28;20254;-82
2023/03/16 04:46:19;;;;;;;2.03;1.90;;;;;;;;;;5033247;28;20305;-82
2023/03/16 04:48:46;;;;;;;1.95;1.85;;;;;;;;;;5034120;28;20673;-82
2023/03/16 04:51:14;;;;;;;1.95;1.85;;;;;;;;;;5034236;28;20293;-82
2023/03/16 04:53:43;;;;;;;1.45;1.35;;;;;;;;;;5034958;28;20265;-83
2023/03/16 04:56:16;;;;;;;2.17;1.88;;;;;;;;;;5034794;28;20228;-82
2023/03/16 04:58:44;;;;;;;2.42;2.00;;;;;;;;;;5033767;28;20190;-82
2023/03/16 05:01:12;;;;;;;2.50;2.08;;;;;;;;;;5034326;28;20212;-83
2023/03/16 05:03:42;;;;;;;2.13;1.98;;;;;;;;;;5034617;28;20261;-83
2023/03/16 05:06:10;;;;;;;2.25;2.05;;;;;;;;;;5034205;28;20599;-83
2023/03/16 05:08:38;;;;;;;1.85;1.63;;;;;;;;;;5033826;28;20200;-84
2023/03/16 05:11:06;;;;;;;1.85;1.75;;;;;;;;;;5034119;28;20248;-84
2023/03/16 05:13:35;;;;;;;2.15;1.95;;;;;;;;;;5034547;28;20586;-83
2023/03/16 05:16:02;;;;;;;1.80;1.70;;;;;;;;;;5034287;28;20223;-83
2023/03/16 05:18:32;;;;;;;2.00;1.80;;;;;;;;;;5033779;28;20300;-85
2023/03/16 05:21:00;;;;;;;1.85;1.50;;;;;;;;;;5034368;28;20229;-82
2023/03/16 05:23:28;;;;;;;4.40;2.30;;;;;;;;;;5034320;28;20309;-83
2023/03/16 05:25:58;;;;;;;3.00;1.92;;;;;;;;;;5034379;28;20256;-83
2023/03/16 05:28:26;;;;;;;2.05;1.90;;;;;;;;;;5034319;28;20237;-85
2023/03/16 05:30:53;;;;;;;1.92;1.80;;;;;;;;;;5033868;28;20213;-83
2023/03/16 05:33:21;;;;;;;2.72;1.80;;;;;;;;;;5033818;28;20198;-84
2023/03/16 05:35:49;;;;;;;4.15;2.20;;;;;;;;;;5033407;28;20242;-83
2023/03/16 05:38:18;;;;;;;4.35;2.40;;;;;;;;;;5033399;28;20233;-82
2023/03/16 05:40:51;;;;;;;3.90;2.15;;;;;;;;;;5033136;28;20208;-82
2023/03/16 05:43:19;;;;;;;2.50;2.30;;;;;;;;;;5034443;28;20215;-82
2023/03/16 05:45:47;;;;;;;5.72;2.13;;;;;;;;;;5034482;28;20222;-83
2023/03/16 05:48:15;;;;;;;5.45;2.13;;;;;;;;;;5034251;28;20314;-83
2023/03/16 05:50:43;;;;;;;2.40;2.20;;;;;;;;;;5034669;28;20245;-82
2023/03/16 05:53:10;;;;;;;3.88;2.63;;;;;;;;;;5034688;28;20205;-82
2023/03/16 05:55:40;;;;;;;3.55;2.25;;;;;;;;;;5034329;28;20317;-82
2023/03/16 05:58:07;;;;;;;4.60;2.53;;;;;;;;;;5034747;28;20643;-84
2023/03/16 06:00:36;;;;;;;7.40;2.33;;;;;;;;;;5035889;28;20499;-84
2023/03/16 06:03:04;;;;;;;4.93;2.60;;;;;;;;;;5038239;28;20206;-82
2023/03/16 06:05:32;;;;;;;2.15;1.92;;;;;;;;;;5038484;28;20575;-84
2023/03/16 06:08:00;;;;;;;3.55;2.17;;;;;;;;;;5038726;28;20276;-83
2023/03/16 06:10:27;;;;;;;2.70;2.42;;;;;;;;;;5037942;28;20545;-82
2023/03/16 06:12:56;;;;;;;4.05;2.90;;;;;;;;;;5038979;28;20313;-86
2023/03/16 06:15:25;;;;;;;3.72;2.63;;;;;;;;;;5037622;28;20253;-84
2023/03/16 06:17:52;;;;;;;2.78;2.42;;;;;;;;;;5038357;28;20198;-85
2023/03/16 06:20:20;;;;;;;3.97;2.40;;;;;;;;;;5037206;28;20233;-84
2023/03/16 06:22:48;;;;;;;6.38;3.20;;;;;;;;;;5045199;28;20199;-83
2023/03/16 06:25:16;;;;;;;4.45;2.70;;;;;;;;;;5054962;28;20312;-84
2023/03/16 06:28:04;;;;;;;4.55;2.47;;;;;;;;;;5057687;28;20198;-84
2023/03/16 06:30:31;;;;;;;8.15;3.08;;;;;;;;;;5057353;28;20201;-84
2023/03/16 06:32:59;;;;;;;2.53;2.33;;;;;;;;;;5044973;28;20212;-83
2023/03/16 06:35:26;;;;;;;4.90;3.05;;;;;;;;;;5038216;28;20302;-83
2023/03/16 06:37:54;;;;;;;2.72;2.50;;;;;;;;;;5038202;28;20629;-83
2023/03/16 06:40:21;;;;;;;5.25;2.38;;;;;;;;;;5038234;28;20294;-82
2023/03/16 06:42:49;;;;;;;2.95;2.05;;;;;;;;;;5038201;28;20269;-83
2023/03/16 06:45:20;;;;;;;4.30;2.55;;;;;;;;;;5037504;28;20329;-83
2023/03/16 06:47:49;;;;;;;2.80;2.10;;;;;;;;;;5037296;28;20684;-83
2023/03/16 06:50:16;;;;;;;2.65;1.80;;;;;;;;;;5037335;28;20264;-84
2023/03/16 06:52:44;;;;;;;5.55;1.80;;;;;;;;;;5037123;28;20198;-82
2023/03/16 06:55:13;;;;;;;6.00;2.67;;;;;;;;;;5036725;28;20228;-83
2023/03/16 06:57:41;;;;;;;2.42;1.95;;;;;;;;;;5036669;28;20212;-84
2023/03/16 07:00:11;;;;;;;5.03;2.30;;;;;;;;;;5037510;28;20256;-82
2023/03/16 07:02:45;;;;;;;4.97;2.90;;;;;;;;;;5038201;28;20203;-84
2023/03/16 07:05:13;;;;;;;3.70;2.10;;;;;;;;;;5037572;28;20225;-82
2023/03/16 07:07:42;;;;;;;2.80;2.60;;;;;;;;;;5037401;28;20293;-83
2023/03/16 07:10:12;;;;;;;4.35;2.30;;;;;;;;;;5037526;28;20198;-83
2023/03/16 07:12:41;;;;;;;2.03;1.83;;;;;;;;;;5037085;28;20213;-83
2023/03/16 07:15:09;;;;;;;2.35;1.83;;;;;;;;;;5037289;28;20237;-82
2023/03/16 07:17:37;;;;;;;3.88;2.10;;;;;;;;;;5037025;28;20293;-84
2023/03/16 07:20:09;;;;;;;2.15;1.95;;;;;;;;;;5036657;28;20322;-83
2023/03/16 07:22:37;;;;;;;5.72;2.20;;;;;;;;;;5022318;28;20688;-84
2023/03/16 07:25:06;;;;;;;3.13;2.17;;;;;;;;;;5016946;28;20319;-86
2023/03/16 07:27:34;;;;;;;1.92;1.73;;;;;;;;;;5016783;28;20282;-82
2023/03/16 07:30:03;;;;;;;3.58;3.28;;;;;;;;;;5015194;28;20298;-82
2023/03/16 07:32:31;;;;;;;2.58;2.15;;;;;;;;;;5021449;28;20193;-83
2023/03/16 07:34:58;;;;;;;3.88;2.90;;;;;;;;;;5038319;28;20199;-82
2023/03/16 07:37:27;;;;;;;3.88;2.28;;;;;;;;;;5035616;28;20213;-82
2023/03/16 07:39:55;;;;;;;3.15;2.20;;;;;;;;;;5035286;28;20288;-83
2023/03/16 07:42:22;;;;;;;2.83;2.17;;;;;;;;;;5035847;28;20352;-82
2023/03/16 07:44:50;;;;;;;4.13;2.58;;;;;;;;;;5035190;28;20655;-81
2023/03/16 07:47:18;;;;;;;4.50;2.75;;;;;;;;;;5051228;28;20240;-83
2023/03/16 07:49:45;;;;;;;3.45;2.20;;;;;;;;;;5035565;28;20233;-81
2023/03/16 07:52:13;;;;;;;3.53;2.67;;;;;;;;;;5035584;28;20241;-83
2023/03/16 07:54:42;;;;;;;3.97;2.65;;;;;;;;;;5035530;28;20225;-82
2023/03/16 07:57:10;;;;;;;4.53;2.85;;;;;;;;;;5035246;28;20317;-81
2023/03/16 07:59:38;;;;;;;2.50;2.30;;;;;;;;;;5035373;28;20206;-81
2023/03/16 08:02:05;;;;;;;3.75;2.58;;;;;;;;;;5034592;28;20852;-83
2023/03/16 08:04:33;;;;;;;3.13;2.75;;;;;;;;;;5034911;28;20226;-81
2023/03/16 08:07:01;;;;;;;3.60;2.80;;;;;;;;;;5034644;28;20249;-82
2023/03/16 08:09:28;;;;;;;2.60;2.40;;;;;;;;;;5035622;28;20202;-80
2023/03/16 08:11:57;;;;;;;3.50;2.40;;;;;;;;;;5035102;28;20281;-81
2023/03/16 08:14:24;;;;;;;5.63;2.30;;;;;;;;;;5035486;28;20202;-82
2023/03/16 08:16:53;;;;;;;4.43;2.38;;;;;;;;;;5035249;28;20700;-80
2023/03/16 08:19:21;;;;;;;3.03;2.63;;;;;;;;;;5035917;28;20206;-82
2023/03/16 08:21:48;;;;;;;2.53;2.28;;;;;;;;;;5035721;28;20198;-82
2023/03/16 08:24:16;;;;;;;4.38;2.33;;;;;;;;;;5035249;28;20210;-82
2023/03/16 08:26:43;;;;;;;3.75;2.40;;;;;;;;;;5034821;28;20233;-83
2023/03/16 08:29:12;;;;;;;6.75;3.55;;;;;;;;;;5035220;28;20650;-83
2023/03/16 08:31:41;;;;;;;3.90;2.88;;;;;;;;;;5035220;28;20834;-82
2023/03/16 08:34:09;;;;;;;6.25;2.70;;;;;;;;;;5034825;28;20290;-83
2023/03/16 08:36:37;;;;;;;7.50;2.60;;;;;;;;;;5034480;28;20237;-81
2023/03/16 08:39:05;;;;;;;3.22;2.35;;;;;;;;;;5035009;28;20234;-82
2023/03/16 08:41:33;;;;;;;7.43;2.80;;;;;;;;;;5035057;28;20285;-83
2023/03/16 08:44:01;;;;;;;3.33;2.80;;;;;;;;;;5035229;28;20203;-82
2023/03/16 08:46:30;;;;;;;4.35;3.95;;;;;;;;;;5034938;28;20229;-81
2023/03/16 08:48:58;;;;;;;3.72;2.30;;;;;;;;;;5034934;28;20722;-82
2023/03/16 08:51:26;;;;;;;3.90;2.67;;;;;;;;;;5034562;28;20739;-82
2023/03/16 08:53:53;;;;;;;4.05;2.40;;;;;;;;;;5035145;28;20207;-80
2023/03/16 08:56:21;;;;;;;3.05;2.42;;;;;;;;;;5035198;28;20218;-81
2023/03/16 08:58:50;;;;;;;2.67;2.30;;;;;;;;;;5034336;28;20256;-84
2023/03/16 09:01:19;;;;;;;2.63;2.40;;;;;;;;;;5034594;28;20198;-81
2023/03/16 09:03:48;;;;;;;4.50;2.60;;;;;;;;;;5034935;28;20206;-81
2023/03/16 09:06:17;;;;;;;3.13;2.20;;;;;;;;;;5034190;28;20313;-82
2023/03/16 09:08:46;;;;;;;5.65;2.10;;;;;;;;;;5033807;28;20226;-81
2023/03/16 09:11:16;;;;;;;4.40;2.45;;;;;;;;;;5034302;28;20202;-82
2023/03/16 09:13:44;;;;;;;2.67;2.45;;;;;;;;;;5034360;28;20647;-81
2023/03/16 09:16:14;;;;;;;2.28;2.08;;;;;;;;;;5034461;28;20266;-82
2023/03/16 09:18:42;;;;;;;3.10;2.05;;;;;;;;;;5032928;28;20212;-81
2023/03/16 09:21:12;;;;;;;2.58;2.20;;;;;;;;;;5033706;28;20198;-82
2023/03/16 09:23:41;;;;;;;4.85;2.05;;;;;;;;;;5034294;28;20194;-82
2023/03/16 09:26:09;;;;;;;2.25;1.90;;;;;;;;;;5034336;28;20280;-83
2023/03/16 09:28:39;;;;;;;2.80;2.35;;;;;;;;;;5033626;28;20209;-85
2023/03/16 09:31:07;;;;;;;2.45;2.25;;;;;;;;;;5034073;28;20256;-85
2023/03/16 09:33:36;;;;;;;3.20;2.38;;;;;;;;;;5032895;28;20221;-85
2023/03/16 09:36:04;;;;;;;2.58;2.38;;;;;;;;;;5035406;28;20220;-85
2023/03/16 09:38:33;;;;;;;2.45;1.80;;;;;;;;;;5034272;28;20697;-85
2023/03/16 09:41:07;;;;;;;1.80;1.70;;;;;;;;;;5034204;28;20651;-84
2023/03/16 09:43:55;;;;;;;1.70;1.60;;;;;;;;;;5034656;28;20191;-83
2023/03/16 09:46:27;;;;;;;2.60;2.00;;;;;;;;;;5034314;28;20253;-85
2023/03/16 09:48:56;;;;;;;2.47;2.00;;;;;;;;;;5033701;28;20222;-84
2023/03/16 09:51:37;;;;;;;2.05;1.90;;;;;;;;;;5033413;28;20248;-85
2023/03/16 09:54:16;;;;;;;1.88;1.77;;;;;;;;;;5034207;28;20615;-84
2023/03/16 09:56:45;;;;;;;2.47;1.88;;;;;;;;;;5033750;28;20304;-83
2023/03/16 09:59:16;;;;;;;3.22;2.20;;;;;;;;;;5034067;28;20202;-86
2023/03/16 10:01:54;;;;;;;1.98;1.73;;;;;;;;;;5034400;28;20677;-85
2023/03/16 10:04:35;;;;;;;2.03;1.60;;;;;;;;;;5033991;28;20191;-84
2023/03/16 10:07:14;;;;;;;1.40;1.30;;;;;;;;;;5033299;28;20226;-85
2023/03/16 10:09:51;;;;;;;1.90;1.70;;;;;;;;;;5033756;28;20191;-85
2023/03/16 10:12:18;;;;;;;2.70;2.40;;;;;;;;;;5033602;28;20183;-85
2023/03/16 10:14:49;;;;;;;2.67;2.13;;;;;;;;;;5033553;28;20666;-84
2023/03/16 10:17:19;;;;;;;2.00;1.75;;;;;;;;;;5033271;28;20205;-84
2023/03/16 10:19:51;;;;;;;3.88;2.03;;;;;;;;;;5033592;28;20198;-83
2023/03/16 10:22:25;;;;;;;4.40;1.90;;;;;;;;;;5033611;28;20196;-84
2023/03/16 10:25:03;;;;;;;2.55;1.48;;;;;;;;;;5032968;28;20214;-85
2023/03/16 10:27:35;;;;;;;1.75;1.65;;;;;;;;;;5033477;28;20297;-84
2023/03/16 10:30:07;;;;;;;1.75;1.65;;;;;;;;;;5033243;28;20191;-85
2023/03/16 10:32:35;;;;;;;1.63;1.52;;;;;;;;;;5033715;28;20191;-85
2023/03/16 10:35:08;;;;;;;2.00;1.90;;;;;;;;;;5033080;28;20202;-87
2023/03/16 10:37:37;;;;;;;1.45;1.35;;;;;;;;;;5033033;28;20638;-87
2023/03/16 10:40:11;;;;;;;1.67;1.58;;;;;;;;;;5032996;28;20199;-88
2023/03/16 10:42:40;;;;;;;1.38;1.27;;;;;;;;;;5033680;28;20616;-87
2023/03/16 10:45:25;;;;;;;2.15;1.45;;;;;;;;;;5033287;28;20198;-89
2023/03/16 10:47:53;;;;;;;2.72;1.55;;;;;;;;;;5037181;28;20217;-86
2023/03/16 10:50:26;;;;;;;2.00;1.70;;;;;;;;;;5035935;28;20285;-88
2023/03/16 10:52:55;;;;;;;1.98;1.45;;;;;;;;;;5035939;28;20570;-88
2023/03/16 10:55:29;;;;;;;2.92;1.40;;;;;;;;;;5035661;28;20750;-87
2023/03/16 10:57:57;;;;;;;4.25;1.58;;;;;;;;;;5035952;28;20198;-89
2023/03/16 11:00:28;;;;;;;1.40;1.30;;;;;;;;;;5035351;28;20288;-88
2023/03/16 11:02:59;;;;;;;1.00;1.00;;;;;;;;;;5035651;28;20186;-89
2023/03/16 11:05:31;;;;;;;1.30;1.08;;;;;;;;;;5035615;28;20310;-88
2023/03/16 11:08:02;;;;;;;1.67;1.58;;;;;;;;;;5035929;28;20203;-91
2023/03/16 11:10:34;;;;;;;1.30;1.20;;;;;;;;;;5035798;28;20221;-90
2023/03/16 11:13:14;;;;;;;1.38;1.27;;;;;;;;;;5035916;28;20191;-89
2023/03/16 11:15:49;;;;;;;1.30;1.20;;;;;;;;;;5035396;28;20821;-89
2023/03/16 11:18:30;;;;;;;1.40;1.30;;;;;;;;;;5035066;28;20233;-87
2023/03/16 11:21:00;;;;;;;1.40;1.30;;;;;;;;;;5034991;28;20189;-89
2023/03/16 11:23:33;;;;;;;1.40;1.30;;;;;;;;;;5035401;28;20278;-89
2023/03/16 11:26:05;;;;;;;1.67;1.58;;;;;;;;;;5035415;28;20222;-90
2023/03/16 11:28:40;;;;;;;1.23;1.15;;;;;;;;;;5035103;28;20648;-89
2023/03/16 11:31:19;;;;;;;1.40;1.30;;;;;;;;;;5035500;28;20225;-89
2023/03/16 11:34:18;;;;;;;1.35;1.20;;;;;;;;;;5035504;28;20230;-90
2023/03/16 11:36:52;;;;;;;1.20;1.10;;;;;;;;;;5035945;28;20280;-86
2023/03/16 11:39:32;;;;;;;2.10;2.00;;;;;;;;;;5035600;28;20650;-86
2023/03/16 11:42:30;;;;;;;1.45;1.30;;;;;;;;;;5036103;28;20194;-88
2023/03/16 11:45:08;;;;;;;1.27;1.17;;;;;;;;;;5032451;28;20582;-86
2023/03/16 11:48:06;;;;;;;4.22;1.98;;;;;;;;;;5036087;28;20243;-87
2023/03/16 11:50:44;;;;;;;1.40;1.20;;;;;;;;;;5034359;28;20205;-86
2023/03/16 11:53:18;;;;;;;1.48;1.38;;;;;;;;;;5035541;28;20183;-85
2023/03/16 11:55:50;;;;;;;1.55;1.45;;;;;;;;;;5035720;28;20761;-86
2023/03/16 11:58:36;;;;;;;1.50;1.40;;;;;;;;;;5037031;28;20701;-85
2023/03/16 12:01:12;;;;;;;1.45;1.35;;;;;;;;;;5038240;28;20202;-86
2023/03/16 12:04:12;;;;;;;1.60;1.50;;;;;;;;;;5037778;28;20189;-85
2023/03/16 12:07:00;;;;;;;1.55;1.35;;;;;;;;;;5037217;28;20240;-85
2023/03/16 12:10:12;;;;;;;3.72;1.85;;;;;;;;;;5037558;28;20191;-83
2023/03/16 12:12:55;;;;;;;1.50;1.40;;;;;;;;;;5037091;28;20212;-88
2023/03/16 12:15:37;;;;;;;1.60;1.50;;;;;;;;;;5037182;28;20308;-85
2023/03/16 12:18:14;;;;;;;1.63;1.50;;;;;;;;;;5035838;28;20194;-87
2023/03/16 12:20:48;;;;;;;1.75;1.33;;;;;;;;;;5037711;28;20213;-88
2023/03/16 12:23:22;;;;;;;2.40;1.30;;;;;;;;;;5036170;28;20186;-87
2023/03/16 12:25:50;;;;;;;1.58;1.48;;;;;;;;;;5037507;28;20230;-86
2023/03/16 12:28:24;;;;;;;2.33;1.73;;;;;;;;;;5039041;28;20246;-86
2023/03/16 12:31:07;;;;;;;2.22;1.30;;;;;;;;;;5039036;28;20213;-87
2023/03/16 12:33:58;;;;;;;1.85;1.38;;;;;;;;;;5020307;28;20203;-86
2023/03/16 12:36:53;;;;;;;2.70;1.38;;;;;;;;;;5018140;28;20284;-85
2023/03/16 12:39:36;;;;;;;1.40;1.25;;;;;;;;;;5008818;28;20271;-85
2023/03/16 12:42:22;;;;;;;1.08;1.05;;;;;;;;;;5017253;28;20219;-86
2023/03/16 12:44:57;;;;;;;0.93;0.93;;;;;;;;;;5015570;28;20270;-89
2023/03/16 12:47:32;;;;;;;1.25;1.15;;;;;;;;;;5015243;28;20298;-87
2023/03/16 12:50:06;;;;;;;2.15;1.95;;;;;;;;;;5015055;28;20281;-87
2023/03/16 12:52:41;;;;;;;0.80;0.80;;;;;;;;;;5016152;28;20202;-87
2023/03/16 12:55:15;;;;;;;1.85;1.33;;;;;;;;;;5017029;28;20569;-88
2023/03/16 12:57:44;;;;;;;1.52;0.75;;;;;;;;;;5015635;28;20222;-86
2023/03/16 13:00:14;;;;;;;1.95;1.85;;;;;;;;;;5014800;28;20211;-87
2023/03/16 13:02:50;;;;;;;1.00;0.90;;;;;;;;;;5015137;28;20290;-87
2023/03/16 13:05:27;;;;;;;1.25;1.15;;;;;;;;;;5015730;28;20227;-86
2023/03/16 13:08:09;;;;;;;1.25;1.10;;;;;;;;;;5016923;28;20245;-86
2023/03/16 13:10:37;;;;;;;2.47;1.67;;;;;;;;;;5015795;28;20199;-87
2023/03/16 13:13:13;;;;;;;1.02;0.98;;;;;;;;;;5015353;28;20289;-86
2023/03/16 13:15:46;;;;;;;1.15;1.00;;;;;;;;;;5015373;28;20248;-88
2023/03/16 13:18:27;;;;;;;0.85;0.85;;;;;;;;;;5015526;28;20193;-86
2023/03/16 13:20:58;;;;;;;3.40;0.90;;;;;;;;;;5015012;28;20186;-88
2023/03/16 13:23:28;;;;;;;1.27;1.17;;;;;;;;;;5014802;28;20271;-87
2023/03/16 13:26:14;;;;;;;1.30;0.98;;;;;;;;;;5015312;28;20254;-86
2023/03/16 13:28:44;;;;;;;0.80;0.80;;;;;;;;;;5014751;28;20318;-89
2023/03/16 13:31:27;;;;;;;0.75;0.75;;;;;;;;;;5013668;28;20184;-89
2023/03/16 13:33:58;;;;;;;1.35;0.70;;;;;;;;;;5014103;28;20195;-89
2023/03/16 13:36:28;;;;;;;1.05;1.02;;;;;;;;;;5013326;28;20277;-89
2023/03/16 13:39:07;;;;;;;0.85;0.85;;;;;;;;;;5013515;28;20229;-87
2023/03/16 13:41:34;;;;;;;0.90;0.90;;;;;;;;;;5013339;28;20213;-89
2023/03/16 13:44:04;;;;;;;3.72;0.80;;;;;;;;;;5013671;28;20233;-88
2023/03/16 13:46:31;;;;;;;2.22;1.00;;;;;;;;;;5027954;28;20774;-88
2023/03/16 13:49:01;;;;;;;0.88;0.88;;;;;;;;;;5033255;28;20222;-89
2023/03/16 13:51:30;;;;;;;0.70;0.70;;;;;;;;;;5033426;28;20208;-88
2023/03/16 13:53:58;;;;;;;1.42;0.90;;;;;;;;;;5033722;28;20233;-88
2023/03/16 13:56:28;;;;;;;1.00;1.00;;;;;;;;;;5033047;28;20254;-88
2023/03/16 13:58:57;;;;;;;1.75;1.20;;;;;;;;;;5033232;28;20202;-89
2023/03/16 14:01:29;;;;;;;1.08;1.08;;;;;;;;;;5032332;28;20202;-89
2023/03/16 14:04:07;;;;;;;1.60;1.50;;;;;;;;;;5033193;28;20200;-88
2023/03/16 14:06:35;;;;;;;1.13;1.10;;;;;;;;;;5032915;28;20236;-87
2023/03/16 14:09:06;;;;;;;1.38;1.27;;;;;;;;;;5032558;28;20272;-89
2023/03/16 14:11:34;;;;;;;0.98;0.98;;;;;;;;;;5033116;28;20569;-87
2023/03/16 14:14:13;;;;;;;2.47;1.15;;;;;;;;;;5033003;28;20694;-88
2023/03/16 14:16:41;;;;;;;1.05;1.05;;;;;;;;;;5033051;28;20218;-87
2023/03/16 14:19:19;;;;;;;1.13;1.02;;;;;;;;;;5032183;28;20205;-87
2023/03/16 14:21:47;;;;;;;1.77;1.40;;;;;;;;;;5034940;28;20201;-85
2023/03/16 14:24:28;;;;;;;2.15;1.20;;;;;;;;;;5037374;28;20214;-82
2023/03/16 14:26:56;;;;;;;1.05;1.02;;;;;;;;;;5038695;28;20314;-83
2023/03/16 14:29:27;;;;;;;1.20;1.10;;;;;;;;;;5037350;28;20230;-84
2023/03/16 14:31:55;;;;;;;1.20;1.10;;;;;;;;;;5034071;28;20304;-84
2023/03/16 14:34:30;;;;;;;1.40;1.30;;;;;;;;;;5046088;28;20261;-84
2023/03/16 14:37:11;;;;;;;0.80;0.80;;;;;;;;;;5048321;28;20294;-85
2023/03/16 14:39:40;;;;;;;1.08;1.00;;;;;;;;;;5045826;28;20198;-85
2023/03/16 14:42:15;;;;;;;2.15;1.10;;;;;;;;;;5044146;28;20268;-85
2023/03/16 14:44:42;;;;;;;0.98;0.98;;;;;;;;;;5045049;28;20204;-84
2023/03/16 14:47:23;;;;;;;0.85;0.85;;;;;;;;;;5042788;28;20218;-85
2023/03/16 14:49:52;;;;;;;1.00;1.00;;;;;;;;;;5044315;28;20226;-85
2023/03/16 14:52:26;;;;;;;1.05;1.00;;;;;;;;;;5044509;28;20265;-86
2023/03/16 14:54:54;;;;;;;1.40;1.30;;;;;;;;;;5042299;28;20627;-84
2023/03/16 14:57:22;;;;;;;1.13;0.95;;;;;;;;;;5043887;28;20289;-85
2023/03/16 14:59:49;;;;;;;1.20;1.10;;;;;;;;;;5045178;28;20636;-86
2023/03/16 15:02:20;;;;;;;1.90;1.50;;;;;;;;;;5038061;28;20680;-85
2023/03/16 15:04:48;;;;;;;1.30;1.23;;;;;;;;;;5025603;28;20194;-85
2023/03/16 15:07:26;;;;;;;1.40;1.30;;;;;;;;;;5025617;28;20679;-85